Terminal Aerodrome Forecast
Issued by NWS

Home | Current Version | Previous Version | Text Only | Print | Product List | Glossary On
Versions: 1 2 3 4 5 6 7 8 9 10 11 12 13
000
FTUS43 KIND 051700
TAFBMG
TAF
KBMG 051720Z 0518/0618 22012G18KT P6SM BKN050
     FM052300 19005KT P6SM SCT060
     FM060300 VRB03KT P6SM SCT250
     FM061500 21007KT P6SM SCT050=

USA.gov is the U.S. government's official web portal to all federal, state and local government web resources and services.